Time;durP1;ratioP1;P1;durP2;ratioP2;P2;SDS_P1;SDS_P2;PMS_P1;PMS_P2;Temp;Humidity;BMP_temperature;BMP_pressure;BME280_temperature;BME280_humidity;BME280_pressure;Samples;Min_cycle;Max_cycle;Signal;HPM_P1;HPM_P2
2021/12/23 00:05:17;;;;;;;4.43;3.75;;;;;;;13.72;43.73;101358.78;19744485;30;20412;-72
2021/12/23 00:15:36;;;;;;;4.07;3.30;;;;;;;13.89;43.39;101370.22;19742607;30;20515;-72
2021/12/23 00:25:38;;;;;;;4.93;4.00;;;;;;;13.88;43.56;101328.34;19742993;30;20059;-72
2021/12/23 00:35:39;;;;;;;4.28;3.85;;;;;;;13.56;43.57;101261.69;19742217;30;20151;-72
2021/12/23 00:45:41;;;;;;;3.95;3.53;;;;;;;13.89;43.63;101290.75;19755297;30;20067;-72
2021/12/23 00:55:45;;;;;;;4.78;4.13;;;;;;;13.46;43.93;101202.59;19740889;30;20063;-72
2021/12/23 01:05:47;;;;;;;4.93;4.43;;;;;;;13.50;43.49;101214.81;19724402;30;20064;-72
2021/12/23 01:16:01;;;;;;;5.50;3.88;;;;;;;13.81;43.81;101258.28;19738119;30;20109;-72
2021/12/23 01:26:03;;;;;;;7.22;4.10;;;;;;;13.44;43.75;101173.28;19738932;30;20494;-72
2021/12/23 01:36:05;;;;;;;5.18;4.25;;;;;;;13.47;43.71;101189.13;19738240;30;20496;-72
2021/12/23 01:46:08;;;;;;;5.57;4.40;;;;;;;13.85;43.75;101225.00;19736373;30;20495;-72
2021/12/23 01:56:10;;;;;;;4.93;4.07;;;;;;;13.90;43.83;101248.81;20128651;24;20057;-71
2021/12/23 02:06:11;;;;;;;5.20;4.10;;;;;;;13.43;43.72;101166.22;19664335;30;20056;-71
2021/12/23 02:16:13;;;;;;;4.88;3.92;;;;;;;13.89;43.84;101206.94;19663455;30;20569;-71
2021/12/23 02:26:15;;;;;;;5.20;4.13;;;;;;;13.92;44.10;101150.53;19661848;30;20075;-73
2021/12/23 02:36:17;;;;;;;4.72;3.85;;;;;;;13.39;44.40;101024.72;19666067;30;20113;-72
2021/12/23 02:46:19;;;;;;;6.32;4.32;;;;;;;13.95;44.16;101134.25;19676236;30;20048;-71
2021/12/23 02:56:21;;;;;;;5.25;4.38;;;;;;;13.55;44.00;101059.38;19675925;30;20072;-71
2021/12/23 03:06:23;;;;;;;5.00;4.13;;;;;;;13.96;43.84;101145.84;19673895;30;20147;-70
2021/12/23 03:16:28;;;;;;;5.35;3.80;;;;;;;13.53;43.78;101054.13;19674148;30;20129;-71
2021/12/23 03:26:31;;;;;;;7.15;3.97;;;;;;;13.97;44.05;101092.19;19672452;30;20060;-75
2021/12/23 03:36:34;;;;;;;5.13;4.03;;;;;;;13.85;44.34;100967.25;19673204;30;20137;-75
2021/12/23 03:46:37;;;;;;;6.10;4.18;;;;;;;14.02;44.02;101023.13;19684322;30;20114;-71
2021/12/23 03:56:43;;;;;;;6.00;4.43;;;;;;;14.03;43.68;100995.38;19669529;30;20518;-70
2021/12/23 04:06:45;;;;;;;5.50;3.78;;;;;;;14.05;43.61;100980.06;19671085;30;20060;-72
2021/12/23 04:16:47;;;;;;;6.45;4.00;;;;;;;14.06;43.82;100946.97;19670302;30;20059;-74
2021/12/23 04:26:50;;;;;;;5.72;4.43;;;;;;;13.58;43.80;100864.75;19653663;30;20060;-71
2021/12/23 04:36:52;;;;;;;5.20;4.10;;;;;;;13.94;43.81;100922.94;19669002;30;20063;-70
2021/12/23 04:46:54;;;;;;;5.15;4.43;;;;;;;13.48;43.72;100858.34;19666814;30;20118;-73
2021/12/23 04:56:55;;;;;;;5.15;4.32;;;;;;;14.20;43.81;100956.69;19666126;30;20072;-74
2021/12/23 05:06:57;;;;;;;5.55;4.30;;;;;;;13.98;43.84;100870.88;19666531;30;20052;-73
2021/12/23 05:16:59;;;;;;;5.85;4.50;;;;;;;14.40;43.31;100902.66;19666032;30;20068;-72
2021/12/23 05:27:01;;;;;;;5.75;4.72;;;;;;;14.54;43.39;100958.72;19662808;30;20070;-71
2021/12/23 05:37:03;;;;;;;5.82;5.00;;;;;;;14.09;43.14;100854.00;19661841;30;20117;-71
2021/12/23 05:47:05;;;;;;;5.20;4.30;;;;;;;13.98;43.63;100838.75;19668495;30;20117;-70
2021/12/23 05:57:08;;;;;;;4.03;3.53;;;;;;;14.58;43.57;100884.34;19683307;30;20079;-70
2021/12/23 06:07:09;;;;;;;5.20;4.13;;;;;;;14.62;43.73;100832.25;19669741;30;20125;-71
2021/12/23 06:17:11;;;;;;;5.82;3.92;;;;;;;14.93;43.82;100806.66;19651668;30;20068;-69
2021/12/23 06:27:15;;;;;;;5.10;3.72;;;;;;;15.22;43.68;100765.97;19651644;30;20063;-68
2021/12/23 06:37:17;;;;;;;5.05;3.97;;;;;;;15.37;43.43;100726.34;19640082;30;20206;-70
2021/12/23 06:47:18;;;;;;;5.47;3.83;;;;;;;15.94;43.53;100800.56;19673640;30;20256;-68
2021/12/23 06:57:21;;;;;;;4.65;4.00;;;;;;;16.11;43.36;100801.00;19670700;30;20060;-69
2021/12/23 07:07:28;;;;;;;4.53;3.53;;;;;;;16.21;43.43;100780.47;19682463;30;20079;-71
2021/12/23 07:17:30;;;;;;;4.70;4.00;;;;;;;16.23;43.51;100771.31;19643156;30;20052;-72
2021/12/23 07:27:32;;;;;;;4.45;3.78;;;;;;;16.21;43.22;100749.09;19658599;30;20053;-69
2021/12/23 07:37:35;;;;;;;4.82;3.85;;;;;;;16.24;43.56;100740.78;19657036;30;20053;-69
2021/12/23 07:47:38;;;;;;;5.63;4.50;;;;;;;15.69;43.21;100665.66;19644032;30;20067;-69
2021/12/23 07:57:40;;;;;;;4.55;3.80;;;;;;;16.02;43.15;100762.34;19634588;30;20052;-69
2021/12/23 08:07:42;;;;;;;7.10;5.18;;;;;;;15.92;43.12;100756.91;19657319;30;20114;-69
2021/12/23 08:17:44;;;;;;;4.55;3.63;;;;;;;15.77;43.46;100690.03;19644475;30;20539;-72
2021/12/23 08:27:46;;;;;;;10.35;5.65;;;;;;;15.79;42.91;100680.00;19644451;30;20075;-69
2021/12/23 08:37:49;;;;;;;6.75;6.05;;;;;;;15.42;43.13;100605.25;19640061;30;20064;-69
2021/12/23 08:47:54;;;;;;;5.40;4.38;;;;;;;15.90;43.04;100676.47;19618014;30;20496;-68
2021/12/23 08:57:57;;;;;;;7.00;5.17;;;;;;;15.45;43.09;100575.47;19670286;30;20488;-69
2021/12/23 09:07:59;;;;;;;5.95;5.22;;;;;;;15.50;42.97;100578.66;19685268;30;20056;-69
2021/12/23 09:18:00;;;;;;;8.68;6.68;;;;;;;15.95;42.81;100633.13;19738003;30;20062;-69
2021/12/23 09:38:27;;;;;;;7.15;5.72;;;;;;;15.55;42.56;100555.94;19625973;30;20071;-72
2021/12/23 09:48:30;;;;;;;5.65;4.70;;;;;;;15.94;42.87;100610.78;19655162;30;20048;-72
2021/12/23 09:58:32;;;;;;;7.30;5.82;;;;;;;15.94;43.14;100591.16;19664370;30;20064;-69
2021/12/23 10:08:34;;;;;;;7.05;5.60;;;;;;;15.56;42.77;100515.56;19648110;30;20059;-69
2021/12/23 10:39:25;;;;;;;7.78;6.55;;;;;;;15.88;42.62;100519.19;19677253;30;20060;-69
2021/12/23 10:49:39;;;;;;;7.00;4.93;;;;;;;15.87;42.55;100501.34;19659622;30;20102;-69
2021/12/23 10:59:41;;;;;;;7.47;5.82;;;;;;;15.64;42.75;100454.03;19671282;30;20130;-69
2021/12/23 11:10:20;;;;;;;7.45;5.65;;;;;;;15.95;42.96;100472.06;19650994;30;20067;-75
2021/12/23 11:40:53;;;;;;;7.82;6.05;;;;;;;15.92;42.99;100391.78;19656140;30;20068;-70
2021/12/23 11:51:20;;;;;;;7.47;6.45;;;;;;;16.14;43.14;100406.84;19685951;30;20498;-70
2021/12/23 12:01:21;;;;;;;10.55;7.05;;;;;;;16.12;43.49;100399.88;19667984;30;20556;-71
2021/12/23 12:11:25;;;;;;;8.00;6.47;;;;;;;16.07;43.63;100402.97;19687643;30;20071;-70
2021/12/23 12:21:31;;;;;;;8.63;6.55;;;;;;;15.77;43.75;100335.75;19709217;30;20130;-70
2021/12/23 12:31:40;;;;;;;9.73;7.07;;;;;;;15.33;43.95;100217.13;19658869;30;20064;-71
2021/12/23 12:41:42;;;;;;;7.35;6.10;;;;;;;15.71;44.27;100261.16;19693099;30;20056;-70
2021/12/23 12:51:46;;;;;;;9.68;7.50;;;;;;;15.66;44.23;100245.44;19694282;30;20060;-71
2021/12/23 13:01:51;;;;;;;8.68;7.40;;;;;;;16.09;43.75;100294.47;19671859;30;20067;-71
2021/12/23 13:11:58;;;;;;;8.67;6.70;;;;;;;16.07;43.71;100272.25;19670894;30;20494;-70
2021/12/23 13:22:22;;;;;;;9.82;8.13;;;;;;;15.92;43.99;100244.13;19681089;30;20056;-70
2021/12/23 13:32:24;;;;;;;9.95;8.07;;;;;;;15.58;44.70;100158.59;19671412;30;20059;-73
2021/12/23 13:42:26;;;;;;;9.52;7.60;;;;;;;16.00;44.54;100198.63;19664959;30;20487;-72
2021/12/23 13:52:38;;;;;;;10.38;8.20;;;;;;;15.56;44.51;100112.28;19651099;30;20060;-74
2021/12/23 14:02:40;;;;;;;7.55;6.10;;;;;;;16.02;44.91;100191.28;19641289;30;20056;-70
2021/12/23 14:12:57;;;;;;;10.18;8.13;;;;;;;16.07;44.71;100191.72;19662982;30;20068;-71
2021/12/23 14:23:13;;;;;;;9.13;7.07;;;;;;;16.06;44.85;100198.06;19644373;30;20064;-70
2021/12/23 14:33:20;;;;;;;9.90;7.78;;;;;;;16.11;44.72;100208.38;19635887;30;20048;-71
2021/12/23 14:43:22;;;;;;;8.55;6.70;;;;;;;16.13;44.52;100192.13;19649014;30;20454;-77
2021/12/23 14:53:24;;;;;;;10.30;8.25;;;;;;;15.70;44.69;100144.06;19643910;30;20132;-71
2021/12/23 15:03:26;;;;;;;10.80;7.65;;;;;;;16.11;44.14;100191.44;19662266;30;20552;-70
2021/12/23 15:13:32;;;;;;;9.20;6.95;;;;;;;15.38;44.24;100062.00;19688405;30;20085;-72
2021/12/23 15:23:42;;;;;;;8.95;6.55;;;;;;;16.12;44.37;100183.22;19677524;30;20113;-71
2021/12/23 15:33:44;;;;;;;8.23;6.43;;;;;;;16.20;44.27;100164.56;19659142;30;20461;-71
2021/12/23 15:43:46;;;;;;;7.53;6.18;;;;;;;16.24;43.94;100155.25;19683224;30;20056;-71
2021/12/23 15:53:48;;;;;;;9.35;7.15;;;;;;;15.84;44.12;100074.84;19652650;30;20056;-72
2021/12/23 16:03:52;;;;;;;8.48;6.70;;;;;;;16.30;43.94;100118.88;19646389;30;20065;-71
2021/12/23 16:13:53;;;;;;;7.65;6.30;;;;;;;16.06;43.86;100047.72;19664780;30;20056;-73
2021/12/23 16:23:55;;;;;;;8.52;6.35;;;;;;;16.20;43.88;100061.66;19679799;30;20062;-74
2021/12/23 16:33:58;;;;;;;7.80;6.25;;;;;;;16.27;44.30;100078.88;19661887;30;20091;-71
2021/12/23 16:44:00;;;;;;;9.38;6.22;;;;;;;15.93;44.12;100012.28;19658215;30;20117;-71
2021/12/23 16:54:02;;;;;;;10.10;7.30;;;;;;;16.26;43.98;100057.56;19653760;30;20068;-71
2021/12/23 17:04:04;;;;;;;8.30;6.53;;;;;;;16.33;44.24;100038.00;19675455;30;20146;-71
2021/12/23 17:14:06;;;;;;;9.25;7.15;;;;;;;15.90;43.88;99974.97;19674774;30;20064;-72
2021/12/23 17:24:08;;;;;;;10.85;7.35;;;;;;;16.32;44.13;100028.25;19683982;30;20566;-72
2021/12/23 17:34:10;;;;;;;13.20;8.50;;;;;;;16.31;44.14;100013.13;19659479;30;20044;-70
2021/12/23 17:44:12;;;;;;;9.85;7.18;;;;;;;16.36;44.13;100007.31;19658510;30;20124;-71
2021/12/23 17:54:13;;;;;;;13.38;9.57;;;;;;;16.28;44.21;99997.31;19646449;30;20295;-75
2021/12/23 18:04:15;;;;;;;11.63;7.80;;;;;;;16.09;43.89;99956.13;19660397;30;20048;-70
2021/12/23 18:14:17;;;;;;;12.27;8.65;;;;;;;15.93;43.78;99908.44;19687217;30;20067;-70
2021/12/23 18:24:19;;;;;;;13.63;8.30;;;;;;;15.92;44.05;99892.50;19676780;30;20060;-73
2021/12/23 18:34:21;;;;;;;11.88;8.30;;;;;;;15.55;44.24;99826.22;19664769;30;20060;-71
2021/12/23 18:44:23;;;;;;;13.70;9.25;;;;;;;15.95;43.97;99897.56;19660659;30;20060;-71
2021/12/23 18:54:25;;;;;;;12.82;9.45;;;;;;;16.40;44.24;99965.75;19672930;30;20123;-70
2021/12/23 19:14:47;;;;;;;12.70;8.95;;;;;;;16.06;44.62;99897.38;19587490;30;20099;-71
2021/12/23 19:24:49;;;;;;;12.05;8.57;;;;;;;16.18;44.92;99930.25;19599478;30;20072;-71
2021/12/23 19:34:52;;;;;;;12.00;8.05;;;;;;;16.21;44.61;99955.94;19627800;30;20447;-72
2021/12/23 19:44:56;;;;;;;13.18;8.32;;;;;;;16.06;44.90;99926.91;19599244;30;20463;-71
2021/12/23 19:54:58;;;;;;;11.55;7.80;;;;;;;15.93;45.35;99915.66;19597715;30;20057;-70
2021/12/23 20:05:00;;;;;;;11.23;7.43;;;;;;;15.68;45.84;99898.31;19664828;30;20056;-70
2021/12/23 20:15:07;;;;;;;10.45;6.95;;;;;;;15.21;46.00;99835.63;19654563;30;20155;-70
2021/12/23 20:25:10;;;;;;;10.40;7.00;;;;;;;15.10;46.33;99843.84;19654051;30;20068;-72
2021/12/23 20:35:13;;;;;;;10.25;6.70;;;;;;;15.34;46.28;99895.19;19666994;30;20068;-70
2021/12/23 20:45:17;;;;;;;8.88;6.00;;;;;;;15.28;46.36;99894.91;19667536;30;20060;-72
2021/12/23 20:55:23;;;;;;;8.73;6.20;;;;;;;15.19;46.48;99908.19;19666981;30;20514;-70
2021/12/23 21:05:25;;;;;;;8.23;5.68;;;;;;;15.07;46.93;99885.19;19663668;30;20064;-71
2021/12/23 21:15:43;;;;;;;7.22;5.65;;;;;;;14.94;46.88;99877.44;19665984;30;20059;-71
2021/12/23 21:25:45;;;;;;;7.70;5.68;;;;;;;14.68;47.19;99840.44;19665331;30;20114;-70
2021/12/23 21:35:50;;;;;;;7.97;5.38;;;;;;;14.57;47.67;99838.75;19647827;30;20056;-72
2021/12/23 21:45:52;;;;;;;7.65;5.30;;;;;;;14.69;47.46;99873.47;19676114;30;20071;-70
2021/12/23 21:55:56;;;;;;;7.03;5.57;;;;;;;14.17;48.19;99791.53;19663160;30;20059;-71
2021/12/23 22:05:57;;;;;;;8.15;5.50;;;;;;;14.50;47.71;99851.88;19646164;30;20071;-72
2021/12/23 22:16:02;;;;;;;8.30;6.47;;;;;;;14.43;48.28;99858.78;19661216;30;20507;-73
2021/12/23 22:26:04;;;;;;;6.65;5.40;;;;;;;14.05;48.40;99791.63;19661513;30;20056;-73
2021/12/23 22:36:06;;;;;;;7.03;5.45;;;;;;;14.21;48.39;99833.94;19644710;30;20055;-73
2021/12/23 22:46:07;;;;;;;7.43;5.80;;;;;;;14.36;48.18;99842.41;19660183;30;20068;-72
2021/12/23 22:56:09;;;;;;;7.68;5.95;;;;;;;14.35;48.38;99813.09;19669339;30;20052;-73
2021/12/23 23:06:11;;;;;;;8.10;5.50;;;;;;;14.36;48.55;99820.13;19675268;30;20180;-72
2021/12/23 23:37:37;;;;;;;7.35;5.70;;;;;;;14.38;49.11;99786.06;19713529;30;20106;-71
2021/12/23 23:47:09;;;;;;;6.97;5.45;;;;;;;14.42;48.91;99786.59;19668488;30;20064;-72
2021/12/23 23:57:11;;;;;;;7.90;6.38;;;;;;;14.00;49.15;99697.56;19664855;30;20064;-72
